Carstairs, Canada
Current Conditions -  °F | °C
As of 2:00 PM on Thursday 27 Nov 2014 (Local Time) from CYYC Reporting Station
Light Snow Light Snow  
Wind Chill:   Ceiling: 500
Heat Index: 21°   Visibility: 0.75mi
Dew Point: 19°   Wind: 16mph
Humidity: 93%   Direction: 30°NNE
Pressure: 29.75"   Gusts: NA
Location:  51.53°N, 114.1°W
Report Text: CYYC 272100Z 03014KT 3/4SM R35L/P6000FT/N R35R/6000FT/U R11/P6000FT/U -SN BR OVC005 M06/M07 A2975 RMK SN5ST3 CIG VRB 004-006 SLP129
Loading
Personal Weather Stations






























Interactive Weather Map New forecast layout! Learn more

10-Day Weather Forecast

Advertisements
Track Severe Weather on mobile